Nearby METAR Reports

 

KSJC - San Jose, California, USA
Distance from station: NE 9mi, 14km
Updated: Wed, 12-Aug-2020 2:53pm CDT
Clear
Clear
 Wind from varies
Wind: varies 6 mph , 9 km/h
Temperature: 81°F , 27°C
Heat Index: 81°F , 27°C
Dew Point: 57°F , 14°C
Humidity: 45%
Barometer: 29.92 inHg , 1013.2 hPa
Clouds: Clear
Visibility: 10 miles , 16 km
2020/08/12 19:53 KSJC 121953Z VRB05KT 10SM CLR 27/14 A2992 RMK AO2 SLP130 T02670139
KNUQ - Moffett Nas/Mtn, California, USA
Distance from station: N 9mi, 14km
Updated: Wed, 12-Aug-2020 8:55am CDT
NOT Current
Overcast
Overcast
 Wind from calm
Wind: Calm
Temperature: 63°F , 17°C
Dew Point: 57°F , 14°C
Humidity: 83%
Barometer: 29.92 inHg , 1013.2 hPa
Clouds: Overcast
Visibility: 10 miles , 16 km
Cloud details: Overcast 1300 ft
2020/08/12 13:55 KNUQ 121355Z AUTO 00000KT 10SM OVC013 17/14 A2992 RMK AO2
 
KPAO - Palo Alto, California, USA
Distance from station: NNW 14mi, 23km
Updated: Wed, 12-Aug-2020 2:47pm CDT
Clear
Clear
 Wind from NW
Wind: NW 8 mph , 13 km/h
Temperature: 72°F , 22°C
Dew Point: 61°F , 16°C
Humidity: 69%
Barometer: 29.94 inHg , 1013.9 hPa
Clouds: Clear
Visibility: 10 miles , 16 km
2020/08/12 19:47 KPAO 121947Z 32007KT 10SM SKC 22/16 A2994
KRHV - San Jose/Reid, California, USA
Distance from station: ENE 12mi, 19km
Updated: Wed, 12-Aug-2020 2:47pm CDT
Clear
Clear
 Wind from NNW
Wind: NNW 7 mph , 11 km/h
Temperature: 82°F , 28°C
Heat Index: 82°F , 28°C
Dew Point: 59°F , 15°C
Humidity: 45%
Barometer: 29.92 inHg , 1013.2 hPa
Clouds: Clear
Visibility: 10 miles , 16 km
2020/08/12 19:47 KRHV 121947Z 33006KT 10SM SKC 28/15 A2992
 
KOAK - Oakland, California, USA
Distance from station: NNW 31mi, 50km
Updated: Wed, 12-Aug-2020 2:53pm CDT
Few Clouds
Few Clouds
 Wind from NW
Wind: NW 12 mph , 19 km/h
Temperature: 72°F , 22°C
Dew Point: 57°F , 14°C
Humidity: 61%
Barometer: 29.95 inHg , 1014.2 hPa
Clouds: Few Clouds
Visibility: 10 miles , 16 km
Cloud details: Few Clouds 1100 ft
2020/08/12 19:53 KOAK 121953Z 31010KT 10SM FEW011 22/14 A2995 RMK AO2 SLP140 T02220139
KSQL - San Carlos Airpo, California, USA
Distance from station: NW 21mi, 34km
Updated: Wed, 12-Aug-2020 2:47pm CDT
Clear
Clear
 Wind from NNE
Wind: NNE 10 mph , 17 km/h
Temperature: 68°F , 20°C
Dew Point: 61°F , 16°C
Humidity: 78%
Barometer: 29.95 inHg , 1014.2 hPa
Clouds: Clear
Visibility: 10 miles , 16 km
2020/08/12 19:47 KSQL 121947Z 02009KT 10SM SKC 20/16 A2995
 
KSFO - San Francisco, California, USA
Distance from station: NW 30mi, 49km
Updated: Wed, 12-Aug-2020 2:56pm CDT
Few Clouds
Few Clouds
 Wind from NW
Wind: NW 14 mph , 22 km/h
Temperature: 70°F , 21°C
Dew Point: 55°F , 13°C
Humidity: 60%
Barometer: 29.94 inHg , 1013.9 hPa
Clouds: Few Clouds
Visibility: 10 miles , 16 km
Cloud details: Few Clouds 900 ft
2020/08/12 19:56 KSFO 121956Z 32012KT 10SM FEW009 21/13 A2994 RMK AO2 SLP137 T02110133
KE16 - San Martin, California, USA
Distance from station: ESE 27mi, 43km
Updated: Wed, 12-Aug-2020 2:50pm CDT
Clear
Clear
 Wind from NNW
Wind: NNW 5 mph , 7 km/h
Temperature: 84°F , 29°C
Dew Point: 54°F , 12°C
Humidity: 35%
Barometer: 29.93 inHg , 1013.5 hPa
Clouds: Clear
Visibility: 10 miles , 16 km
2020/08/12 19:50 KE16 121950Z AUTO 33004KT 10SM CLR 29/12 A2993 RMK AO2
 
KWVI - Watsonville, California, USA
Distance from station: SSE 27mi, 44km
Updated: Wed, 12-Aug-2020 2:53pm CDT
Clear
Clear
 Wind from WSW
Wind: WSW 7 mph , 11 km/h
Barometer: 29.95 inHg , 1014.2 hPa
Clouds: Clear
Visibility: 10 miles , 16 km
2020/08/12 19:53 KWVI 121953Z AUTO 24006KT 10SM CLR A2995 RMK AO2 SLPNO $
KHAF - Half Moon Bay, California, USA
Distance from station: WNW 31mi, 50km
Updated: Wed, 12-Aug-2020 2:55pm CDT
Mostly cloudy
Mostly cloudy
 Wind from W
Wind: W 6 mph , 9 km/h
Temperature: 63°F , 17°C
Dew Point: 57°F , 14°C
Humidity: 83%
Barometer: 29.97 inHg , 1014.9 hPa
Clouds: Mostly cloudy
Visibility: 9 miles , 14 km
Cloud details: Mostly cloudy 600 ft
2020/08/12 19:55 KHAF 121955Z AUTO 28005KT 9SM BKN006 17/14 A2997 RMK AO2
 
KHWD - Hayward, California, USA
Distance from station: N 28mi, 44km
Updated: Wed, 12-Aug-2020 2:54pm CDT
Clear
Clear
 Wind from W
Wind: W 8 mph , 13 km/h
Temperature: 75°F , 24°C
Dew Point: 57°F , 14°C
Humidity: 54%
Barometer: 29.93 inHg , 1013.5 hPa
Clouds: Clear
Visibility: 10 miles , 16 km
2020/08/12 19:54 KHWD 121954Z 28007KT 10SM CLR 24/14 A2993 RMK AO2 SLP144 T02390139
KLVK - Livermore, California, USA
Distance from station: NNE 31mi, 51km
Updated: Wed, 12-Aug-2020 2:53pm CDT
Clear
Clear
 Wind from WNW
Wind: WNW 6 mph , 9 km/h
Temperature: 86°F , 30°C
Dew Point: 55°F , 13°C
Humidity: 35%
Barometer: 29.91 inHg , 1012.9 hPa
Clouds: Clear
Visibility: 10 miles , 16 km
2020/08/12 19:53 KLVK 121953Z 29005KT 10SM CLR 30/13 A2991 RMK AO2 SLP123 T03000133